createdAt,value
2019-03-21T00:00:43.521Z,5.80
2019-03-21T00:03:16.866Z,5.80
2019-03-21T00:05:50.323Z,5.80
2019-03-21T00:08:23.665Z,5.70
2019-03-21T00:11:58.151Z,5.70
2019-03-21T00:15:14.843Z,5.60
2019-03-21T00:17:53.373Z,5.50
2019-03-21T00:20:26.825Z,5.40
2019-03-21T00:22:59.979Z,5.40
2019-03-21T00:25:33.185Z,5.40
2019-03-21T00:28:06.477Z,5.40
2019-03-21T00:30:39.634Z,5.30
2019-03-21T00:33:13.021Z,5.30
2019-03-21T00:35:46.407Z,5.40
2019-03-21T00:38:19.482Z,5.40
2019-03-21T00:40:52.722Z,5.50
2019-03-21T00:43:26.070Z,5.50
2019-03-21T00:45:59.240Z,5.70
2019-03-21T00:48:32.335Z,5.70
2019-03-21T00:51:05.640Z,5.90
2019-03-21T00:53:38.909Z,6.00
2019-03-21T00:56:12.808Z,6.10
2019-03-21T00:58:45.953Z,6.20
2019-03-21T01:01:19.249Z,6.20
2019-03-21T01:03:52.952Z,6.30
2019-03-21T01:06:26.347Z,6.20
2019-03-21T01:08:59.637Z,6.10
2019-03-21T01:11:32.952Z,6.10
2019-03-21T01:14:06.869Z,6.00
2019-03-21T01:16:40.034Z,5.80
2019-03-21T01:19:13.163Z,5.80
2019-03-21T01:21:46.876Z,5.80
2019-03-21T01:24:20.004Z,5.80
2019-03-21T01:26:53.121Z,5.60
2019-03-21T01:29:26.524Z,5.60
2019-03-21T01:31:59.592Z,5.50
2019-03-21T01:34:32.947Z,5.50
2019-03-21T01:37:06.450Z,5.40
2019-03-21T01:39:39.701Z,5.40
2019-03-21T01:42:12.810Z,5.40
2019-03-21T01:44:45.957Z,5.40
2019-03-21T01:47:19.097Z,5.30
2019-03-21T01:49:52.218Z,5.30
2019-03-21T01:52:25.747Z,5.30
2019-03-21T01:54:59.066Z,5.20
2019-03-21T01:57:32.706Z,5.20
2019-03-21T02:00:07.565Z,5.00
2019-03-21T02:02:40.663Z,4.90
2019-03-21T02:05:13.886Z,4.80
2019-03-21T02:07:47.368Z,4.90
2019-03-21T02:10:20.837Z,4.90
2019-03-21T02:12:54.053Z,4.90
2019-03-21T02:15:27.409Z,4.90
2019-03-21T02:18:00.598Z,4.90
2019-03-21T02:20:33.879Z,4.80
2019-03-21T02:23:07.111Z,4.90
2019-03-21T02:25:40.578Z,5.00
2019-03-21T02:28:15.263Z,5.00
2019-03-21T02:30:48.930Z,5.10
2019-03-21T02:33:28.586Z,5.20
2019-03-21T02:36:01.707Z,5.20
2019-03-21T02:38:34.903Z,5.10
2019-03-21T02:41:09.478Z,5.20
2019-03-21T02:43:42.651Z,5.20
2019-03-21T02:46:16.183Z,5.20
2019-03-21T02:48:49.593Z,5.10
2019-03-21T02:51:22.743Z,5.10
2019-03-21T02:53:56.190Z,5.00
2019-03-21T02:56:29.632Z,5.00
2019-03-21T02:59:03.089Z,5.00
2019-03-21T03:01:36.348Z,5.00
2019-03-21T03:04:09.852Z,5.00
2019-03-21T03:06:43.006Z,5.00
2019-03-21T03:09:16.263Z,5.00
2019-03-21T03:11:49.647Z,5.00
2019-03-21T03:14:23.018Z,5.00
2019-03-21T03:16:56.412Z,5.00
2019-03-21T03:19:29.631Z,4.90
2019-03-21T03:22:02.971Z,4.80
2019-03-21T03:24:38.239Z,4.80
2019-03-21T03:27:11.510Z,4.80
2019-03-21T03:29:44.765Z,4.80
2019-03-21T03:32:18.256Z,4.80
2019-03-21T03:34:51.698Z,4.80
2019-03-21T03:37:24.837Z,4.80
2019-03-21T03:39:58.084Z,4.80
2019-03-21T03:42:31.176Z,4.90
2019-03-21T03:45:04.446Z,4.80
2019-03-21T03:47:37.756Z,4.70
2019-03-21T03:50:11.744Z,4.60
2019-03-21T03:52:44.889Z,4.50
2019-03-21T03:55:18.405Z,4.50
2019-03-21T03:57:52.156Z,4.50
2019-03-21T04:00:25.299Z,4.50
2019-03-21T04:02:58.678Z,4.60
2019-03-21T04:05:32.084Z,4.60
2019-03-21T04:08:05.475Z,4.60
2019-03-21T04:10:43.406Z,4.60
2019-03-21T04:13:17.605Z,4.60
2019-03-21T04:15:53.058Z,4.60
2019-03-21T04:18:25.999Z,4.60
2019-03-21T04:21:00.263Z,4.60
2019-03-21T04:23:33.778Z,4.60
2019-03-21T04:26:15.183Z,4.60
2019-03-21T04:28:48.600Z,4.60
2019-03-21T04:31:21.888Z,4.60
2019-03-21T04:33:57.149Z,4.60
2019-03-21T04:36:30.174Z,4.50
2019-03-21T04:39:04.636Z,4.50
2019-03-21T04:41:37.835Z,4.40
2019-03-21T04:44:11.163Z,4.30
2019-03-21T04:46:44.483Z,4.20
2019-03-21T04:49:17.706Z,4.10
2019-03-21T04:51:50.927Z,4.00
2019-03-21T04:54:25.465Z,3.90
2019-03-21T04:56:58.662Z,3.90
2019-03-21T04:59:31.988Z,3.80
2019-03-21T05:02:05.417Z,3.80
2019-03-21T05:04:39.060Z,3.80
2019-03-21T05:07:12.358Z,3.70
2019-03-21T05:09:45.777Z,3.70
2019-03-21T05:12:18.751Z,3.70
2019-03-21T05:14:52.045Z,3.60
2019-03-21T05:17:25.229Z,3.70
2019-03-21T05:19:58.835Z,3.90
2019-03-21T05:22:35.466Z,4.00
2019-03-21T05:25:10.852Z,4.40
2019-03-21T05:27:44.512Z,4.60
2019-03-21T05:30:25.773Z,4.80
2019-03-21T05:32:59.299Z,4.90
2019-03-21T05:35:33.084Z,5.20
2019-03-21T05:38:06.441Z,5.30
2019-03-21T05:40:39.713Z,5.50
2019-03-21T05:43:17.626Z,5.60
2019-03-21T05:45:50.850Z,5.60
2019-03-21T05:48:24.114Z,5.60
2019-03-21T05:50:57.631Z,5.80
2019-03-21T05:53:30.668Z,6.00
2019-03-21T05:56:04.322Z,6.20
2019-03-21T05:58:37.694Z,6.40
2019-03-21T06:01:21.889Z,6.40
2019-03-21T06:03:55.800Z,6.40
2019-03-21T06:06:41.652Z,6.80
2019-03-21T06:09:17.810Z,7.50
2019-03-21T06:11:56.360Z,7.90
2019-03-21T06:14:29.856Z,8.20
2019-03-21T06:17:03.476Z,8.60
2019-03-21T06:20:09.294Z,9.10
2019-03-21T06:23:05.903Z,9.30
2019-03-21T06:26:14.907Z,9.50
2019-03-21T06:28:48.515Z,10.00
2019-03-21T06:31:21.733Z,10.50
2019-03-21T06:33:55.046Z,10.70
2019-03-21T06:36:28.349Z,11.10
2019-03-21T06:39:01.889Z,11.30
2019-03-21T06:41:35.287Z,11.30
2019-03-21T06:44:08.538Z,11.60
2019-03-21T06:46:49.487Z,12.00
2019-03-21T06:49:17.103Z,12.30
2019-03-21T06:51:50.424Z,12.70
2019-03-21T06:54:23.641Z,13.10
2019-03-21T06:57:02.293Z,13.70
2019-03-21T06:59:34.753Z,14.00
2019-03-21T07:02:08.043Z,14.20
2019-03-21T07:04:41.600Z,13.90
2019-03-21T07:07:33.355Z,13.60
2019-03-21T07:10:08.469Z,13.60
2019-03-21T07:12:41.938Z,14.10
2019-03-21T07:15:18.039Z,14.80
2019-03-21T07:17:51.394Z,15.10
2019-03-21T07:20:24.831Z,15.00
2019-03-21T07:22:58.084Z,15.10
2019-03-21T07:25:31.438Z,15.20
2019-03-21T07:28:04.601Z,15.30
2019-03-21T07:30:38.307Z,15.10
2019-03-21T07:33:11.695Z,14.90
2019-03-21T07:35:45.196Z,15.20
2019-03-21T07:38:18.639Z,15.50
2019-03-21T07:40:52.012Z,15.80
2019-03-21T07:43:25.583Z,16.30
2019-03-21T07:45:58.982Z,16.60
2019-03-21T07:48:32.593Z,16.80
2019-03-21T07:51:05.872Z,17.00
2019-03-21T07:53:39.199Z,17.40
2019-03-21T07:56:12.495Z,17.80
2019-03-21T07:58:45.812Z,18.10
2019-03-21T08:01:19.313Z,18.40
2019-03-21T08:03:52.747Z,18.40
2019-03-21T08:06:26.010Z,18.70
2019-03-21T08:08:59.479Z,19.40
2019-03-21T08:11:33.381Z,19.20
2019-03-21T08:14:06.708Z,19.90
2019-03-21T08:16:39.983Z,19.90
2019-03-21T08:19:13.356Z,19.70
2019-03-21T08:21:46.689Z,20.70
2019-03-21T08:24:19.986Z,20.20
2019-03-21T08:26:53.664Z,20.10
2019-03-21T08:29:26.885Z,20.20
2019-03-21T08:32:00.267Z,20.50
2019-03-21T08:34:33.643Z,20.60
2019-03-21T08:37:06.955Z,20.70
2019-03-21T08:39:40.193Z,20.30
2019-03-21T08:42:13.625Z,19.90
2019-03-21T08:44:46.989Z,20.10
2019-03-21T08:47:20.408Z,20.30
2019-03-21T08:49:53.710Z,19.10
2019-03-21T08:52:27.377Z,18.70
2019-03-21T08:55:00.578Z,18.70
2019-03-21T08:57:33.826Z,18.50
2019-03-21T09:00:08.321Z,18.90
2019-03-21T09:02:41.680Z,18.80
2019-03-21T09:05:15.285Z,18.60
2019-03-21T09:07:48.618Z,18.90
2019-03-21T09:10:22.133Z,19.10
2019-03-21T09:12:55.441Z,19.70
2019-03-21T09:15:29.212Z,19.70
2019-03-21T09:18:02.596Z,19.70
2019-03-21T09:20:35.991Z,19.90
2019-03-21T09:23:09.289Z,20.20
2019-03-21T09:25:42.818Z,20.10
2019-03-21T09:28:16.242Z,19.60
2019-03-21T09:30:50.730Z,19.90
2019-03-21T09:33:24.228Z,20.00
2019-03-21T09:35:57.401Z,20.00
2019-03-21T09:38:30.871Z,20.20
2019-03-21T09:41:04.220Z,19.60
2019-03-21T09:43:37.597Z,20.20
2019-03-21T09:46:10.952Z,21.20
2019-03-21T09:48:44.462Z,21.50
2019-03-21T09:51:17.888Z,21.10
2019-03-21T09:53:51.451Z,21.00
2019-03-21T09:56:24.897Z,21.80
2019-03-21T09:58:58.227Z,22.30
2019-03-21T10:01:31.694Z,22.40
2019-03-21T10:04:05.471Z,22.80
2019-03-21T10:06:38.768Z,22.80
2019-03-21T10:09:12.192Z,22.70
2019-03-21T10:11:45.491Z,22.80
2019-03-21T10:14:18.859Z,22.70
2019-03-21T10:16:52.171Z,22.50
2019-03-21T10:19:25.594Z,22.80
2019-03-21T10:21:58.945Z,23.40
2019-03-21T10:24:32.408Z,23.40
2019-03-21T10:27:05.796Z,23.20
2019-03-21T10:29:39.151Z,22.90
2019-03-21T10:32:14.599Z,22.80
2019-03-21T10:34:47.878Z,22.90
2019-03-21T10:37:21.381Z,22.70
2019-03-21T10:39:54.830Z,22.60
2019-03-21T10:42:28.311Z,22.80
2019-03-21T10:45:01.831Z,22.40
2019-03-21T10:47:35.649Z,22.20
2019-03-21T10:50:09.924Z,22.20
2019-03-21T10:52:43.294Z,22.30
2019-03-21T10:55:16.868Z,22.50
2019-03-21T10:57:50.902Z,22.30
2019-03-21T11:00:24.595Z,22.50
2019-03-21T11:02:58.063Z,22.50
2019-03-21T11:05:31.504Z,22.60
2019-03-21T11:08:05.273Z,22.40
2019-03-21T11:10:38.400Z,22.30
2019-03-21T11:13:11.986Z,22.40
2019-03-21T11:15:48.459Z,22.40
2019-03-21T11:18:22.591Z,22.10
2019-03-21T11:20:56.772Z,21.90
2019-03-21T11:23:30.167Z,21.90
2019-03-21T11:26:03.442Z,22.10
2019-03-21T11:28:36.894Z,22.10
2019-03-21T11:31:10.129Z,21.80
2019-03-21T11:33:43.750Z,21.60
2019-03-21T11:36:17.003Z,21.90
2019-03-21T11:38:50.470Z,21.40
2019-03-21T11:41:23.653Z,20.70
2019-03-21T11:43:57.066Z,20.60
2019-03-21T11:46:48.618Z,21.10
2019-03-21T11:49:21.829Z,21.00
2019-03-21T11:51:55.305Z,21.00
2019-03-21T11:54:28.760Z,20.70
2019-03-21T11:57:02.049Z,20.80
2019-03-21T11:59:46.493Z,20.50
2019-03-21T12:02:10.692Z,20.40
2019-03-21T12:04:44.099Z,20.20
2019-03-21T12:07:17.395Z,19.80
2019-03-21T12:09:50.815Z,19.60
2019-03-21T12:12:24.069Z,19.40
2019-03-21T12:14:57.409Z,19.60
2019-03-21T12:17:31.167Z,19.80
2019-03-21T12:20:04.745Z,19.50
2019-03-21T12:22:38.065Z,19.10
2019-03-21T12:25:12.050Z,19.10
2019-03-21T12:27:45.612Z,19.20
2019-03-21T12:30:28.957Z,19.40
2019-03-21T12:33:02.829Z,18.90
2019-03-21T12:35:36.333Z,18.30
2019-03-21T12:38:10.369Z,18.00
2019-03-21T12:40:43.871Z,18.10
2019-03-21T12:43:17.245Z,18.20
2019-03-21T12:45:50.692Z,18.30
2019-03-21T12:48:24.104Z,18.10
2019-03-21T12:50:57.479Z,18.10
2019-03-21T12:53:31.207Z,17.90
2019-03-21T12:56:04.682Z,17.80
2019-03-21T12:58:38.200Z,17.50
2019-03-21T13:01:11.464Z,17.60
2019-03-21T13:03:45.160Z,17.70
2019-03-21T13:06:18.500Z,17.80
2019-03-21T13:08:51.683Z,17.80
2019-03-21T13:11:25.323Z,17.40
2019-03-21T13:13:58.561Z,17.60
2019-03-21T13:16:31.894Z,17.70
2019-03-21T13:19:05.305Z,17.20
2019-03-21T13:21:38.591Z,17.40
2019-03-21T13:24:12.137Z,17.60
2019-03-21T13:26:45.579Z,17.60
2019-03-21T13:29:19.072Z,17.10
2019-03-21T13:31:52.285Z,17.10
2019-03-21T13:34:25.686Z,17.10
2019-03-21T13:36:59.039Z,16.90
2019-03-21T13:39:32.309Z,17.00
2019-03-21T13:42:05.826Z,17.00
2019-03-21T13:44:39.042Z,17.10
2019-03-21T13:47:12.703Z,16.90
2019-03-21T13:49:45.934Z,17.10
2019-03-21T13:52:19.299Z,17.20
2019-03-21T13:54:53.331Z,17.10
2019-03-21T13:57:26.653Z,16.80
2019-03-21T14:00:00.012Z,16.40
2019-03-21T14:02:33.250Z,16.50
2019-03-21T14:05:07.930Z,16.50
2019-03-21T14:07:41.438Z,16.60
2019-03-21T14:10:16.002Z,16.50
2019-03-21T14:12:49.471Z,16.20
2019-03-21T14:15:24.016Z,16.50
2019-03-21T14:17:57.485Z,16.40
2019-03-21T14:20:30.791Z,16.30
2019-03-21T14:23:16.046Z,16.40
2019-03-21T14:25:39.208Z,16.60
2019-03-21T14:28:12.835Z,16.80
2019-03-21T14:30:46.292Z,16.80
2019-03-21T14:33:19.621Z,16.70
2019-03-21T14:35:53.121Z,16.60
2019-03-21T14:38:26.740Z,16.30
2019-03-21T14:41:00.118Z,16.40
2019-03-21T14:43:33.600Z,16.50
2019-03-21T14:46:06.793Z,16.60
2019-03-21T14:48:40.111Z,16.40
2019-03-21T14:51:13.487Z,16.30
2019-03-21T14:53:47.164Z,16.30
2019-03-21T14:56:20.606Z,16.40
2019-03-21T14:58:53.882Z,16.30
2019-03-21T15:01:27.686Z,16.20
2019-03-21T15:04:19.417Z,16.20
2019-03-21T15:06:53.101Z,16.10
2019-03-21T15:09:26.566Z,16.00
2019-03-21T15:12:00.332Z,16.00
2019-03-21T15:14:33.920Z,16.00
2019-03-21T15:17:07.486Z,16.10
2019-03-21T15:19:40.933Z,16.20
2019-03-21T15:22:14.368Z,16.10
2019-03-21T15:24:47.696Z,16.00
2019-03-21T15:27:24.216Z,15.90
2019-03-21T15:29:57.682Z,15.90
2019-03-21T15:32:31.188Z,16.00
2019-03-21T15:35:05.204Z,16.00
2019-03-21T15:37:38.704Z,15.90
2019-03-21T15:40:13.375Z,15.80
2019-03-21T15:42:46.885Z,15.70
2019-03-21T15:45:23.620Z,15.50
2019-03-21T15:47:56.168Z,15.50
2019-03-21T15:50:38.649Z,15.40
2019-03-21T15:53:12.131Z,15.30
2019-03-21T15:55:45.567Z,15.20
2019-03-21T15:58:19.028Z,15.20
2019-03-21T16:01:11.218Z,15.20
2019-03-21T16:03:44.823Z,15.10
2019-03-21T16:06:18.164Z,15.10
2019-03-21T16:08:51.811Z,15.00
2019-03-21T16:11:25.392Z,15.00
2019-03-21T16:13:58.724Z,15.00
2019-03-21T16:16:32.082Z,15.00
2019-03-21T16:19:05.375Z,15.10
2019-03-21T16:21:57.479Z,15.10
2019-03-21T16:24:31.156Z,15.00
2019-03-21T16:27:04.537Z,14.90
2019-03-21T16:29:37.906Z,14.80
2019-03-21T16:32:11.468Z,14.70
2019-03-21T16:34:44.820Z,14.70
2019-03-21T16:37:18.127Z,14.70
2019-03-21T16:39:51.820Z,14.70
2019-03-21T16:42:25.700Z,14.70
2019-03-21T16:44:59.048Z,14.60
2019-03-21T16:47:32.315Z,14.60
2019-03-21T16:50:06.756Z,14.50
2019-03-21T16:52:39.791Z,14.50
2019-03-21T16:55:14.348Z,14.40
2019-03-21T16:57:48.154Z,14.30
2019-03-21T17:00:22.111Z,14.30
2019-03-21T17:02:55.549Z,14.20
2019-03-21T17:05:28.956Z,14.20
2019-03-21T17:08:11.288Z,14.00
2019-03-21T17:10:37.826Z,13.80
2019-03-21T17:13:11.873Z,13.70
2019-03-21T17:15:45.190Z,13.50
2019-03-21T17:18:18.918Z,13.30
2019-03-21T17:20:52.494Z,13.30
2019-03-21T17:23:25.912Z,13.20
2019-03-21T17:25:59.397Z,13.00
2019-03-21T17:28:32.794Z,12.80
2019-03-21T17:31:06.308Z,12.80
2019-03-21T17:33:39.614Z,12.70
2019-03-21T17:36:12.979Z,12.60
2019-03-21T17:38:46.517Z,12.50
2019-03-21T17:41:19.836Z,12.40
2019-03-21T17:43:53.273Z,12.30
2019-03-21T17:46:27.107Z,12.30
2019-03-21T17:49:00.735Z,12.20
2019-03-21T17:51:34.036Z,12.20
2019-03-21T17:54:07.482Z,12.10
2019-03-21T17:56:41.173Z,12.10
2019-03-21T17:59:14.482Z,12.00
2019-03-21T18:01:47.921Z,12.00
2019-03-21T18:04:21.313Z,12.10
2019-03-21T18:06:55.124Z,12.00
2019-03-21T18:09:28.725Z,11.90
2019-03-21T18:12:02.208Z,11.80
2019-03-21T18:14:35.565Z,11.80
2019-03-21T18:17:09.027Z,11.80
2019-03-21T18:19:43.124Z,11.90
2019-03-21T18:22:16.399Z,11.80
2019-03-21T18:24:53.996Z,11.70
2019-03-21T18:27:24.999Z,11.60
2019-03-21T18:29:58.438Z,11.50
2019-03-21T18:32:31.742Z,11.50
2019-03-21T18:35:05.627Z,11.50
2019-03-21T18:37:39.470Z,11.50
2019-03-21T18:40:14.470Z,11.70
2019-03-21T18:42:48.001Z,11.70
2019-03-21T18:45:21.550Z,11.80
2019-03-21T18:47:54.560Z,11.90
2019-03-21T18:50:28.022Z,11.90
2019-03-21T18:53:01.465Z,11.60
2019-03-21T18:55:34.796Z,11.40
2019-03-21T18:58:08.311Z,11.30
2019-03-21T19:00:41.592Z,11.20
2019-03-21T19:03:15.099Z,11.10
2019-03-21T19:05:48.473Z,11.10
2019-03-21T19:08:32.232Z,11.10
2019-03-21T19:11:05.611Z,11.10
2019-03-21T19:13:39.198Z,11.10
2019-03-21T19:16:14.034Z,10.90
2019-03-21T19:18:48.027Z,10.80
2019-03-21T19:21:21.414Z,10.80
2019-03-21T19:23:54.707Z,10.70
2019-03-21T19:26:28.098Z,10.80
2019-03-21T19:29:01.808Z,10.80
2019-03-21T19:31:35.240Z,10.80
2019-03-21T19:34:08.744Z,10.80
2019-03-21T19:36:41.962Z,10.80
2019-03-21T19:39:15.592Z,10.80
2019-03-21T19:41:48.882Z,10.70
2019-03-21T19:44:22.355Z,10.60
2019-03-21T19:46:55.875Z,10.40
2019-03-21T19:49:29.417Z,10.50
2019-03-21T19:52:05.398Z,10.40
2019-03-21T19:54:38.441Z,10.40
2019-03-21T19:57:12.070Z,10.40
2019-03-21T19:59:45.417Z,10.60
2019-03-21T20:02:18.912Z,10.40
2019-03-21T20:04:53.791Z,10.40
2019-03-21T20:07:27.567Z,10.50
2019-03-21T20:10:00.912Z,10.40
2019-03-21T20:12:36.917Z,10.30
2019-03-21T20:15:11.486Z,10.30
2019-03-21T20:17:45.007Z,10.40
2019-03-21T20:20:19.366Z,10.40
2019-03-21T20:22:52.983Z,10.40
2019-03-21T20:25:26.823Z,10.30
2019-03-21T20:28:00.048Z,10.30
2019-03-21T20:30:36.275Z,10.30
2019-03-21T20:33:14.644Z,10.20
2019-03-21T20:35:47.932Z,10.20
2019-03-21T20:38:21.330Z,10.10
2019-03-21T20:40:54.682Z,10.10
2019-03-21T20:43:28.283Z,10.20
2019-03-21T20:46:01.673Z,10.40
2019-03-21T20:48:32.011Z,10.30
2019-03-21T20:51:05.571Z,10.30
2019-03-21T20:53:39.123Z,10.20
2019-03-21T20:56:12.731Z,10.30
2019-03-21T20:58:46.093Z,10.30
2019-03-21T21:01:19.394Z,10.30
2019-03-21T21:03:52.861Z,10.30
2019-03-21T21:06:26.199Z,10.30
2019-03-21T21:08:59.603Z,10.40
2019-03-21T21:11:35.132Z,10.30
2019-03-21T21:14:08.533Z,10.30
2019-03-21T21:16:42.271Z,10.30
2019-03-21T21:19:15.593Z,10.20
2019-03-21T21:21:49.045Z,10.10
2019-03-21T21:24:22.740Z,10.00
2019-03-21T21:26:56.711Z,10.00
2019-03-21T21:29:30.211Z,9.90
2019-03-21T21:32:03.783Z,9.90
2019-03-21T21:34:37.432Z,10.00
2019-03-21T21:37:10.826Z,10.00
2019-03-21T21:39:44.314Z,9.80
2019-03-21T21:42:17.917Z,9.70
2019-03-21T21:44:52.314Z,9.70
2019-03-21T21:47:25.804Z,9.60
2019-03-21T21:49:59.264Z,9.70
2019-03-21T21:52:41.565Z,9.70
2019-03-21T21:55:09.002Z,9.60
2019-03-21T21:57:44.924Z,9.70
2019-03-21T22:00:19.725Z,9.80
2019-03-21T22:02:53.183Z,9.80
2019-03-21T22:05:28.186Z,9.80
2019-03-21T22:08:02.099Z,9.80
2019-03-21T22:10:35.801Z,9.80
2019-03-21T22:13:09.144Z,9.80
2019-03-21T22:15:42.535Z,9.90
2019-03-21T22:18:16.128Z,9.80
2019-03-21T22:20:49.848Z,9.80
2019-03-21T22:23:23.716Z,9.80
2019-03-21T22:25:57.066Z,9.80
2019-03-21T22:28:30.497Z,9.80
2019-03-21T22:31:04.133Z,9.70
2019-03-21T22:33:37.540Z,9.60
2019-03-21T22:36:10.889Z,9.50
2019-03-21T22:38:45.467Z,9.40
2019-03-21T22:41:19.465Z,9.40
2019-03-21T22:43:52.893Z,9.40
2019-03-21T22:46:26.309Z,9.50
2019-03-21T22:48:59.728Z,9.60
2019-03-21T22:51:33.859Z,9.70
2019-03-21T22:54:07.370Z,9.70
2019-03-21T22:56:41.697Z,9.70
2019-03-21T22:59:16.217Z,9.70
2019-03-21T23:01:50.452Z,9.70
2019-03-21T23:04:24.815Z,9.70
2019-03-21T23:06:59.575Z,9.70
2019-03-21T23:09:34.018Z,9.60
2019-03-21T23:12:07.916Z,9.50
2019-03-21T23:14:41.360Z,9.40
2019-03-21T23:17:14.754Z,9.30
2019-03-21T23:19:48.031Z,9.20
2019-03-21T23:22:21.307Z,9.10
2019-03-21T23:24:54.516Z,9.10
2019-03-21T23:27:27.761Z,9.20
2019-03-21T23:30:01.068Z,9.20
2019-03-21T23:32:34.331Z,9.10
2019-03-21T23:35:10.001Z,9.10
2019-03-21T23:37:43.293Z,9.00
2019-03-21T23:40:17.318Z,9.10
2019-03-21T23:42:50.716Z,9.10
2019-03-21T23:45:24.206Z,9.10
2019-03-21T23:47:57.672Z,9.20
2019-03-21T23:50:31.235Z,9.30
2019-03-21T23:53:04.832Z,9.20
2019-03-21T23:55:38.166Z,9.20
2019-03-21T23:58:11.667Z,9.20
